Abilene, Texas
Current Conditions -  °F | °C
As of 5:52 PM on Friday 28 Nov 2014 (Local Time) from KABI Reporting Station
Clear Clear  
Wind Chill: 67°   Ceiling: Unl
Heat Index: 67°   Visibility: 10mi
Dew Point: 39°   Wind: 15mph
Humidity: 36%   Direction: 190°S
Pressure: 30.01"   Gusts: NA
Location:  32.45°N, 99.74°W
Report Text: KABI 282352Z 19013KT 10SM CLR 19/04 A3001 RMK AO2 SLP149 T01940039 10222 20167 56004
Loading
Personal Weather Stations






























Interactive Weather Map New forecast layout! Learn more

10-Day Weather Forecast

Advertisements
Track Severe Weather on mobile